Time;durP1;ratioP1;P1;durP2;ratioP2;P2;SDS_P1;SDS_P2;PMS_P1;PMS_P2;Temp;Humidity;BMP_temperature;BMP_pressure;BME280_temperature;BME280_humidity;BME280_pressure;Samples;Min_cycle;Max_cycle;Signal;HPM_P1;HPM_P2
2021/12/07 00:01:08;;;;;;;;;;;0.90;99.90;;;;;;5070625;28;19977;-53
2021/12/07 00:03:39;;;;;;;;;;;0.90;99.90;;;;;;5066101;28;20352;-53
2021/12/07 00:06:06;;;;;;;;;;;0.80;99.90;;;;;;5071055;28;19974;-55
2021/12/07 00:08:33;;;;;;;;;;;0.80;99.90;;;;;;5067072;28;20326;-54
2021/12/07 00:11:00;;;;;;;;;;;0.80;99.90;;;;;;5073489;28;20448;-54
2021/12/07 00:13:30;;;;;;;;;;;1.00;99.90;;;;;;5070796;28;20340;-53
2021/12/07 00:15:57;;;;;;;;;;;1.20;99.90;;;;;;5071459;28;19972;-53
2021/12/07 00:18:25;;;;;;;;;;;1.20;99.90;;;;;;5072777;28;19928;-53
2021/12/07 00:20:52;;;;;;;;;;;1.10;99.90;;;;;;5069492;28;19994;-54
2021/12/07 00:23:19;;;;;;;;;;;1.20;99.90;;;;;;5071120;28;20348;-55
2021/12/07 00:25:46;;;;;;;;;;;1.20;99.90;;;;;;5071917;28;19940;-53
2021/12/07 00:28:13;;;;;;;;;;;1.30;99.90;;;;;;5072235;28;20028;-54
2021/12/07 00:30:40;;;;;;;;;;;1.20;99.90;;;;;;5064019;28;19929;-55
2021/12/07 00:33:09;;;;;;;;;;;1.30;99.90;;;;;;5070350;28;19978;-54
2021/12/07 00:35:38;;;;;;;;;;;1.30;99.90;;;;;;5071752;28;19975;-53
2021/12/07 00:38:07;;;;;;;;;;;1.40;99.90;;;;;;5069477;28;19943;-55
2021/12/07 00:40:34;;;;;;;;;;;1.40;99.90;;;;;;5066534;28;19974;-54
2021/12/07 00:43:01;;;;;;;;;;;1.50;99.90;;;;;;5071958;28;19924;-54
2021/12/07 00:45:31;;;;;;;;;;;1.60;99.90;;;;;;5072388;28;19990;-53
2021/12/07 00:47:59;;;;;;;;;;;1.50;99.90;;;;;;5072227;28;20440;-53
2021/12/07 00:50:26;;;;;;;;;;;1.20;99.90;;;;;;5068187;28;19948;-54
2021/12/07 00:52:54;;;;;;;;;;;0.90;99.90;;;;;;5067231;28;19924;-54
2021/12/07 00:55:23;;;;;;;;;;;1.00;99.90;;;;;;5072054;28;20334;-54
2021/12/07 00:57:53;;;;;;;;;;;1.10;99.90;;;;;;5071804;28;19970;-54
2021/12/07 01:00:20;;;;;;;;;;;1.00;99.90;;;;;;5072084;28;20401;-54
2021/12/07 01:02:47;;;;;;;;;;;1.00;99.90;;;;;;5072419;28;19931;-54
2021/12/07 01:05:19;;;;;;;;;;;1.40;99.90;;;;;;5068860;28;19925;-54
2021/12/07 01:08:09;;;;;;;;;;;1.50;99.90;;;;;;5072651;28;19924;-53
2021/12/07 01:27:04;;;;;;;;;;;1.50;99.90;;;;;;5072155;28;19935;-53
2021/12/07 01:29:36;;;;;;;;;;;1.50;99.90;;;;;;5072472;28;19932;-55
2021/12/07 01:32:12;;;;;;;;;;;1.60;99.90;;;;;;5071269;28;19935;-54
2021/12/07 01:35:08;;;;;;;;;;;1.50;99.90;;;;;;5067547;28;19924;-53
2021/12/07 01:37:42;;;;;;;;;;;1.60;99.90;;;;;;5070331;28;20015;-55
2021/12/07 01:51:14;;;;;;;;;;;1.70;99.90;;;;;;5052396;28;20019;-53
2021/12/07 02:01:55;;;;;;;;;;;1.80;99.90;;;;;;5054651;28;19978;-54
2021/12/07 02:04:22;;;;;;;;;;;1.80;99.90;;;;;;5056950;28;19970;-53
2021/12/07 02:06:49;;;;;;;;;;;1.70;99.90;;;;;;5056030;28;20407;-53
2021/12/07 02:09:16;;;;;;;;;;;1.60;99.90;;;;;;5066451;28;19993;-55
2021/12/07 02:11:48;;;;;;;;;;;1.60;99.90;;;;;;5075275;28;19928;-53
2021/12/07 02:14:17;;;;;;;;;;;1.50;99.90;;;;;;5075502;28;19924;-54
2021/12/07 02:16:45;;;;;;;;;;;1.30;99.90;;;;;;5075843;28;20377;-53
2021/12/07 02:19:12;;;;;;;;;;;1.30;99.90;;;;;;5075318;28;19931;-53
2021/12/07 02:21:40;;;;;;;;;;;1.20;99.90;;;;;;5073378;28;19970;-53
2021/12/07 02:24:07;;;;;;;;;;;1.40;99.90;;;;;;5074623;28;19928;-53
2021/12/07 02:26:34;;;;;;;;;;;1.60;99.90;;;;;;5075727;28;19932;-55
2021/12/07 02:29:01;;;;;;;;;;;1.80;99.90;;;;;;5074869;28;19925;-54
2021/12/07 02:31:28;;;;;;;;;;;1.70;99.90;;;;;;5075128;28;19929;-54
2021/12/07 02:33:55;;;;;;;;;;;1.30;99.90;;;;;;5075220;28;19932;-54
2021/12/07 02:36:22;;;;;;;;;;;1.10;99.90;;;;;;5065679;28;19929;-55
2021/12/07 02:38:54;;;;;;;;;;;0.90;99.90;;;;;;5055325;28;19929;-53
2021/12/07 02:41:21;;;;;;;;;;;0.80;99.90;;;;;;5065592;28;19925;-54
2021/12/07 02:43:51;;;;;;;;;;;0.70;99.90;;;;;;5075270;28;19928;-53
2021/12/07 02:46:18;;;;;;;;;;;0.60;99.90;;;;;;5075282;28;19928;-54
2021/12/07 02:48:44;;;;;;;;;;;0.70;99.90;;;;;;5068969;28;19930;-54
2021/12/07 02:51:11;;;;;;;;;;;0.70;99.90;;;;;;5061377;28;19970;-54
2021/12/07 02:53:38;;;;;;;;;;;0.70;99.90;;;;;;5075287;28;19924;-53
2021/12/07 02:56:08;;;;;;;;;;;0.70;99.90;;;;;;5072951;28;19924;-54
2021/12/07 02:58:36;;;;;;;;;;;0.70;99.90;;;;;;5074274;28;19924;-55
2021/12/07 03:01:09;;;;;;;;;;;0.90;99.90;;;;;;5072630;28;20448;-55
2021/12/07 03:03:41;;;;;;;;;;;1.00;99.90;;;;;;5075049;28;19928;-53
2021/12/07 03:06:16;;;;;;;;;;;0.80;99.90;;;;;;5074609;28;19935;-52
2021/12/07 03:27:54;;;;;;;;;;;0.40;99.90;;;;;;5074643;28;19995;-54
2021/12/07 03:30:21;;;;;;;;;;;0.40;99.90;;;;;;5073557;28;20406;-53
2021/12/07 03:32:48;;;;;;;;;;;0.50;99.90;;;;;;5074420;28;20415;-53
2021/12/07 03:35:15;;;;;;;;;;;0.60;99.90;;;;;;5070970;28;19979;-54
2021/12/07 03:37:42;;;;;;;;;;;0.50;99.90;;;;;;5072298;28;20386;-54
2021/12/07 03:40:09;;;;;;;;;;;0.50;99.90;;;;;;5073977;28;19925;-54
2021/12/07 03:42:36;;;;;;;;;;;0.60;99.90;;;;;;5073660;28;19978;-54
2021/12/07 03:45:06;;;;;;;;;;;0.60;99.90;;;;;;5073967;28;19924;-53
2021/12/07 03:47:33;;;;;;;;;;;0.60;99.90;;;;;;5073945;28;20353;-53
2021/12/07 03:50:00;;;;;;;;;;;0.40;99.90;;;;;;5066578;28;19924;-54
2021/12/07 03:52:27;;;;;;;;;;;0.60;99.90;;;;;;5073655;28;19978;-53
2021/12/07 03:54:54;;;;;;;;;;;0.40;99.90;;;;;;5073836;28;19924;-53
2021/12/07 03:57:20;;;;;;;;;;;0.50;99.90;;;;;;5073998;28;19924;-54
2021/12/07 03:59:47;;;;;;;;;;;0.40;99.90;;;;;;5067956;28;19928;-53
2021/12/07 04:02:15;;;;;;;;;;;0.60;99.90;;;;;;5059045;28;19925;-54
2021/12/07 04:04:42;;;;;;;;;;;0.60;99.90;;;;;;5062145;28;20330;-54
2021/12/07 04:07:09;;;;;;;;;;;0.60;99.90;;;;;;5054786;28;19929;-53
2021/12/07 04:09:36;;;;;;;;;;;0.50;99.90;;;;;;5055349;28;19996;-58
2021/12/07 04:12:03;;;;;;;;;;;0.60;99.90;;;;;;5070410;28;19924;-53
2021/12/07 04:14:29;;;;;;;;;;;0.60;99.90;;;;;;5077601;28;19929;-54
2021/12/07 04:16:56;;;;;;;;;;;0.70;99.90;;;;;;5093267;28;19924;-57
2021/12/07 04:19:24;;;;;;;;;;;0.60;99.90;;;;;;5078917;28;19959;-54
2021/12/07 04:21:51;;;;;;;;;;;0.60;99.90;;;;;;5073170;28;20401;-54
2021/12/07 04:24:18;;;;;;;;;;;0.70;99.90;;;;;;5073149;28;20400;-54
2021/12/07 04:26:45;;;;;;;;;;;0.70;99.90;;;;;;5073786;28;20352;-53
2021/12/07 04:29:11;;;;;;;;;;;0.60;99.90;;;;;;5069390;28;20397;-53
2021/12/07 04:31:38;;;;;;;;;;;0.70;99.90;;;;;;5061619;28;19936;-53
2021/12/07 04:34:05;;;;;;;;;;;0.70;99.90;;;;;;5072098;28;19942;-53
2021/12/07 04:36:33;;;;;;;;;;;0.80;99.90;;;;;;5073268;28;19928;-53
2021/12/07 04:39:03;;;;;;;;;;;0.90;99.90;;;;;;5073131;28;19924;-53
2021/12/07 04:41:32;;;;;;;;;;;0.80;99.90;;;;;;5072733;28;19924;-52
2021/12/07 04:44:00;;;;;;;;;;;0.90;99.90;;;;;;5068598;28;19929;-53
2021/12/07 04:46:34;;;;;;;;;;;0.90;99.90;;;;;;5053193;28;19925;-54
2021/12/07 04:49:43;;;;;;;;;;;1.00;99.90;;;;;;5071438;28;19924;-52
2021/12/07 04:57:43;;;;;;;;;;;0.70;99.90;;;;;;5027748;28;19921;-54
2021/12/07 05:00:12;;;;;;;;;;;0.70;99.90;;;;;;5072501;28;19932;-52
2021/12/07 05:02:41;;;;;;;;;;;0.60;99.90;;;;;;5072728;28;19931;-52
2021/12/07 05:05:11;;;;;;;;;;;0.70;99.90;;;;;;5072608;28;19928;-52
2021/12/07 05:07:45;;;;;;;;;;;0.70;99.90;;;;;;5073053;28;19924;-52
2021/12/07 05:10:23;;;;;;;;;;;0.80;99.90;;;;;;5071990;28;19924;-54
2021/12/07 05:18:36;;;;;;;;;;;1.10;99.90;;;;;;5087553;28;19912;-51
2021/12/07 05:24:03;;;;;;;;;;;0.90;99.90;;;;;;5097236;28;19966;-57
2021/12/07 05:40:22;;;;;;;;;;;0.90;99.90;;;;;;5058926;28;19964;-55
2021/12/07 05:42:50;;;;;;;;;;;1.00;99.90;;;;;;5051922;28;20387;-53
2021/12/07 05:45:17;;;;;;;;;;;0.90;99.90;;;;;;5066495;28;20390;-53
2021/12/07 05:47:45;;;;;;;;;;;1.00;99.90;;;;;;5071879;28;19925;-54
2021/12/07 05:50:13;;;;;;;;;;;1.00;99.90;;;;;;5071918;28;19924;-54
2021/12/07 05:52:40;;;;;;;;;;;1.00;99.90;;;;;;5061931;28;20414;-53
2021/12/07 05:55:07;;;;;;;;;;;1.10;99.90;;;;;;5067727;28;19946;-52
2021/12/07 05:57:36;;;;;;;;;;;1.10;99.90;;;;;;5071839;28;19925;-54
2021/12/07 06:00:05;;;;;;;;;;;0.90;99.90;;;;;;5071773;28;19924;-54
2021/12/07 06:02:31;;;;;;;;;;;0.80;99.90;;;;;;5071532;28;19928;-54
2021/12/07 06:04:59;;;;;;;;;;;0.80;99.90;;;;;;5069205;28;19932;-52
2021/12/07 06:07:25;;;;;;;;;;;0.70;99.90;;;;;;5060474;28;19931;-54
2021/12/07 06:09:52;;;;;;;;;;;0.70;99.90;;;;;;5062081;28;20011;-54
2021/12/07 06:12:19;;;;;;;;;;;0.70;99.90;;;;;;5070797;28;19928;-53
2021/12/07 06:14:47;;;;;;;;;;;0.80;99.90;;;;;;5054216;28;19987;-53
2021/12/07 06:17:14;;;;;;;;;;;1.00;99.90;;;;;;5051710;28;19924;-53
2021/12/07 06:19:41;;;;;;;;;;;1.40;99.90;;;;;;5051628;28;19924;-54
2021/12/07 06:22:09;;;;;;;;;;;1.10;99.90;;;;;;5065734;28;19929;-53
2021/12/07 06:24:35;;;;;;;;;;;1.10;99.90;;;;;;5066564;28;19928;-54
2021/12/07 06:27:02;;;;;;;;;;;1.20;99.90;;;;;;5071668;28;20540;-53
2021/12/07 06:29:29;;;;;;;;;;;1.00;99.90;;;;;;5071580;28;19924;-54
2021/12/07 06:31:57;;;;;;;;;;;0.80;99.90;;;;;;5070344;28;19925;-53
2021/12/07 06:34:24;;;;;;;;;;;0.80;99.90;;;;;;5056655;28;20394;-53
2021/12/07 06:36:51;;;;;;;;;;;0.80;99.90;;;;;;5051853;28;19931;-54
2021/12/07 06:39:20;;;;;;;;;;;0.80;99.90;;;;;;5060456;28;19928;-54
2021/12/07 06:41:47;;;;;;;;;;;1.00;99.90;;;;;;5070380;28;20391;-54
2021/12/07 06:44:14;;;;;;;;;;;1.10;99.90;;;;;;5071206;28;19966;-54
2021/12/07 06:46:41;;;;;;;;;;;1.10;99.90;;;;;;5054997;28;19925;-55
2021/12/07 06:49:09;;;;;;;;;;;1.30;99.90;;;;;;5067080;28;20406;-53
2021/12/07 06:51:36;;;;;;;;;;;1.30;99.90;;;;;;5062816;28;19931;-53
2021/12/07 06:54:03;;;;;;;;;;;1.00;99.90;;;;;;5058816;28;19925;-54
2021/12/07 06:56:30;;;;;;;;;;;1.00;99.90;;;;;;5068276;28;19924;-55
2021/12/07 06:58:57;;;;;;;;;;;1.10;99.90;;;;;;5068827;28;19928;-54
2021/12/07 07:01:23;;;;;;;;;;;1.20;99.90;;;;;;5074004;28;19936;-55
2021/12/07 07:03:50;;;;;;;;;;;1.10;99.90;;;;;;5073052;28;19985;-53
2021/12/07 07:06:18;;;;;;;;;;;1.20;99.90;;;;;;5073556;28;19986;-52
2021/12/07 07:08:45;;;;;;;;;;;1.30;99.90;;;;;;5069075;28;19977;-55
2021/12/07 07:11:12;;;;;;;;;;;1.70;99.90;;;;;;5061943;28;19928;-53
2021/12/07 07:13:39;;;;;;;;;;;1.70;99.90;;;;;;5071053;28;19929;-55
2021/12/07 07:16:06;;;;;;;;;;;1.50;99.90;;;;;;5071717;28;19929;-55
2021/12/07 07:18:34;;;;;;;;;;;1.40;99.90;;;;;;5063007;28;19978;-54
2021/12/07 07:21:01;;;;;;;;;;;1.20;99.90;;;;;;5070165;28;20398;-54
2021/12/07 07:23:30;;;;;;;;;;;1.10;99.90;;;;;;5073566;28;19929;-54
2021/12/07 07:25:57;;;;;;;;;;;1.20;99.90;;;;;;5064244;28;20011;-54
2021/12/07 07:28:24;;;;;;;;;;;1.20;99.90;;;;;;5069836;28;19983;-53
2021/12/07 07:30:50;;;;;;;;;;;1.40;99.90;;;;;;5073451;28;19924;-55
2021/12/07 07:33:17;;;;;;;;;;;1.30;99.90;;;;;;5074277;28;20333;-54
2021/12/07 07:35:44;;;;;;;;;;;1.30;99.90;;;;;;5074213;28;20386;-55
2021/12/07 07:38:11;;;;;;;;;;;1.40;99.90;;;;;;5073911;28;19924;-53
2021/12/07 07:40:39;;;;;;;;;;;1.20;99.90;;;;;;5073439;28;20391;-53
2021/12/07 07:43:06;;;;;;;;;;;1.30;99.90;;;;;;5073064;28;19924;-53
2021/12/07 07:45:32;;;;;;;;;;;1.40;99.90;;;;;;5074188;28;19970;-54
2021/12/07 07:47:59;;;;;;;;;;;1.30;99.90;;;;;;5072795;28;20348;-53
2021/12/07 07:50:26;;;;;;;;;;;1.20;99.90;;;;;;5072820;28;19929;-55
2021/12/07 07:52:53;;;;;;;;;;;1.30;99.90;;;;;;5073652;28;19947;-55
2021/12/07 07:55:20;;;;;;;;;;;1.30;99.90;;;;;;5073091;28;19924;-53
2021/12/07 07:57:48;;;;;;;;;;;1.30;99.90;;;;;;5072438;28;20386;-55
2021/12/07 08:00:17;;;;;;;;;;;1.40;99.90;;;;;;5072132;28;19925;-54
2021/12/07 08:02:44;;;;;;;;;;;1.40;99.90;;;;;;5073522;28;20450;-54
2021/12/07 08:05:12;;;;;;;;;;;1.40;99.90;;;;;;5073746;28;19925;-53
2021/12/07 08:07:39;;;;;;;;;;;1.20;99.90;;;;;;5073693;28;19985;-55
2021/12/07 08:10:07;;;;;;;;;;;1.30;99.90;;;;;;5073510;28;19986;-54
2021/12/07 08:12:34;;;;;;;;;;;1.40;99.90;;;;;;5073024;28;20325;-53
2021/12/07 08:15:02;;;;;;;;;;;1.50;99.90;;;;;;5072668;28;19993;-55
2021/12/07 08:17:29;;;;;;;;;;;1.90;99.90;;;;;;5073139;28;20349;-54
2021/12/07 08:19:56;;;;;;;;;;;1.60;99.90;;;;;;5073384;28;19978;-54
2021/12/07 08:22:22;;;;;;;;;;;1.60;99.90;;;;;;5072824;28;20487;-54
2021/12/07 08:24:49;;;;;;;;;;;1.30;99.90;;;;;;5073260;28;19981;-55
2021/12/07 08:27:16;;;;;;;;;;;1.60;99.90;;;;;;5073280;28;19924;-53
2021/12/07 08:29:43;;;;;;;;;;;1.50;99.90;;;;;;5072695;28;19925;-55
2021/12/07 08:32:11;;;;;;;;;;;1.50;99.90;;;;;;5072481;28;19974;-54
2021/12/07 08:34:37;;;;;;;;;;;1.60;99.90;;;;;;5073158;28;20341;-54
2021/12/07 08:37:04;;;;;;;;;;;1.60;99.90;;;;;;5072996;28;20341;-53
2021/12/07 08:39:34;;;;;;;;;;;1.80;99.90;;;;;;5073056;28;19970;-55
2021/12/07 08:42:01;;;;;;;;;;;1.70;99.90;;;;;;5072015;28;19944;-54
2021/12/07 08:44:28;;;;;;;;;;;1.90;99.90;;;;;;5072112;28;20452;-53
2021/12/07 08:46:55;;;;;;;;;;;1.90;99.90;;;;;;5053051;28;19993;-55
2021/12/07 08:49:23;;;;;;;;;;;1.60;99.90;;;;;;5053051;28;19970;-55
2021/12/07 08:51:50;;;;;;;;;;;1.50;99.90;;;;;;5051996;28;19929;-54
2021/12/07 08:54:29;;;;;;;;;;;1.50;99.90;;;;;;5056090;28;19925;-54
2021/12/07 08:59:44;;;;;;;;;;;1.80;99.90;;;;;;5072628;28;19928;-54
2021/12/07 09:02:12;;;;;;;;;;;1.80;99.90;;;;;;5071556;28;20413;-53
2021/12/07 09:04:41;;;;;;;;;;;1.80;99.90;;;;;;5072684;28;19954;-54
2021/12/07 09:07:07;;;;;;;;;;;2.00;99.90;;;;;;5072278;28;19928;-55
2021/12/07 09:09:36;;;;;;;;;;;2.00;99.90;;;;;;5072582;28;19974;-53
2021/12/07 09:12:03;;;;;;;;;;;1.80;99.90;;;;;;5071352;28;20348;-54
2021/12/07 09:14:30;;;;;;;;;;;1.70;99.90;;;;;;5072436;28;19928;-54
2021/12/07 09:16:57;;;;;;;;;;;1.50;99.90;;;;;;5072185;28;19978;-53
2021/12/07 09:19:23;;;;;;;;;;;1.70;99.90;;;;;;5072558;28;19928;-55
2021/12/07 09:21:52;;;;;;;;;;;1.80;99.90;;;;;;5071366;28;20440;-53
2021/12/07 09:24:19;;;;;;;;;;;1.80;99.90;;;;;;5072389;28;19994;-54
2021/12/07 09:26:46;;;;;;;;;;;1.70;99.90;;;;;;5072311;28;19924;-55
2021/12/07 09:29:12;;;;;;;;;;;1.80;99.90;;;;;;5071715;28;20378;-54
2021/12/07 09:31:59;;;;;;;;;;;1.90;99.90;;;;;;5070428;28;20074;-53
2021/12/07 09:34:25;;;;;;;;;;;1.90;99.90;;;;;;5072268;28;19924;-53
2021/12/07 09:36:53;;;;;;;;;;;2.00;99.90;;;;;;5072064;28;19924;-54
2021/12/07 09:39:20;;;;;;;;;;;1.90;99.90;;;;;;5067878;28;20395;-54
2021/12/07 09:41:47;;;;;;;;;;;1.90;99.90;;;;;;5071187;28;19962;-54
2021/12/07 09:44:14;;;;;;;;;;;2.00;99.90;;;;;;5071860;28;19928;-55
2021/12/07 09:46:42;;;;;;;;;;;2.20;99.90;;;;;;5071719;28;19958;-54
2021/12/07 09:49:09;;;;;;;;;;;2.30;99.90;;;;;;5071872;28;19924;-55
2021/12/07 09:51:37;;;;;;;;;;;2.40;99.90;;;;;;5071155;28;19977;-56
2021/12/07 09:54:06;;;;;;;;;;;2.30;99.90;;;;;;5071709;28;19932;-54
2021/12/07 09:56:33;;;;;;;;;;;2.40;99.90;;;;;;5068556;28;19971;-55
2021/12/07 09:59:00;;;;;;;;;;;2.40;99.90;;;;;;5051946;28;19936;-54
2021/12/07 10:01:29;;;;;;;;;;;2.40;99.90;;;;;;5053288;28;20390;-55
2021/12/07 10:03:56;;;;;;;;;;;2.70;99.90;;;;;;5071711;28;19931;-54
2021/12/07 10:06:23;;;;;;;;;;;2.70;99.90;;;;;;5071702;28;19929;-55
2021/12/07 10:08:51;;;;;;;;;;;2.50;99.90;;;;;;5071751;28;19928;-54
2021/12/07 10:11:19;;;;;;;;;;;2.60;99.90;;;;;;5070778;28;20374;-54
2021/12/07 10:13:46;;;;;;;;;;;2.70;99.90;;;;;;5071861;28;19929;-55
2021/12/07 10:16:14;;;;;;;;;;;2.70;99.90;;;;;;5066253;28;19940;-55
2021/12/07 10:18:42;;;;;;;;;;;2.60;99.90;;;;;;5061786;28;20400;-54
2021/12/07 10:21:13;;;;;;;;;;;2.60;99.90;;;;;;5070832;28;19928;-54
2021/12/07 10:23:41;;;;;;;;;;;2.60;99.90;;;;;;5075679;28;19925;-53
2021/12/07 10:26:10;;;;;;;;;;;2.60;99.90;;;;;;5075649;28;19939;-55
2021/12/07 10:28:39;;;;;;;;;;;2.40;99.90;;;;;;5075544;28;19970;-54
2021/12/07 10:31:16;;;;;;;;;;;2.40;99.90;;;;;;5074538;28;20449;-54
2021/12/07 10:33:45;;;;;;;;;;;2.40;99.90;;;;;;5074892;28;19932;-55
2021/12/07 10:36:13;;;;;;;;;;;2.30;99.90;;;;;;5074791;28;19932;-54
2021/12/07 10:38:41;;;;;;;;;;;2.40;99.90;;;;;;5075596;28;19929;-54
2021/12/07 10:41:08;;;;;;;;;;;2.30;99.90;;;;;;5074767;28;19982;-55
2021/12/07 10:43:47;;;;;;;;;;;2.40;99.90;;;;;;5075008;28;19924;-57
2021/12/07 10:46:41;;;;;;;;;;;2.50;99.90;;;;;;5074130;28;19925;-54
2021/12/07 10:49:12;;;;;;;;;;;2.70;99.90;;;;;;5038608;28;19925;-55
2021/12/07 10:51:40;;;;;;;;;;;2.80;99.90;;;;;;5074124;28;20010;-54
2021/12/07 10:54:07;;;;;;;;;;;3.00;99.90;;;;;;5074799;28;19924;-54
2021/12/07 10:56:36;;;;;;;;;;;3.00;99.90;;;;;;5074850;28;19924;-54
2021/12/07 10:59:06;;;;;;;;;;;3.20;99.90;;;;;;5074569;28;19931;-54
2021/12/07 11:01:34;;;;;;;;;;;3.20;99.90;;;;;;5074294;28;19925;-54
2021/12/07 11:04:23;;;;;;;;;;;3.10;99.90;;;;;;5074398;28;20352;-54
2021/12/07 11:07:17;;;;;;;;;;;3.20;99.90;;;;;;5074327;28;19970;-56
2021/12/07 11:09:45;;;;;;;;;;;3.40;99.90;;;;;;5038725;28;20008;-54
2021/12/07 11:12:13;;;;;;;;;;;3.60;99.90;;;;;;5073946;28;19978;-54
2021/12/07 11:14:47;;;;;;;;;;;3.60;99.90;;;;;;5073699;28;19928;-54
2021/12/07 11:17:15;;;;;;;;;;;3.70;99.90;;;;;;5073663;28;20386;-55
2021/12/07 11:19:41;;;;;;;;;;;3.70;99.90;;;;;;5073136;28;19924;-53
2021/12/07 11:22:08;;;;;;;;;;;3.60;99.90;;;;;;5073307;28;19931;-55
2021/12/07 11:24:39;;;;;;;;;;;3.70;99.90;;;;;;5074408;28;19925;-54
2021/12/07 11:30:05;;;;;;;;;;;3.60;99.90;;;;;;5074171;28;20005;-54
2021/12/07 11:32:32;;;;;;;;;;;3.80;99.90;;;;;;5073302;28;19955;-54
2021/12/07 11:35:08;;;;;;;;;;;3.50;99.90;;;;;;5073458;28;19970;-54
2021/12/07 11:37:35;;;;;;;;;;;3.50;99.90;;;;;;5074199;28;19978;-55
2021/12/07 11:40:02;;;;;;;;;;;3.50;99.90;;;;;;5053907;28;20314;-53
2021/12/07 11:42:30;;;;;;;;;;;3.60;99.90;;;;;;5053495;28;19924;-54
2021/12/07 11:44:58;;;;;;;;;;;3.40;99.90;;;;;;5055192;28;20391;-54
2021/12/07 11:47:28;;;;;;;;;;;3.40;99.90;;;;;;5074110;28;19924;-54
2021/12/07 11:49:54;;;;;;;;;;;3.40;99.90;;;;;;5072210;28;19925;-55
2021/12/07 11:52:21;;;;;;;;;;;3.50;99.90;;;;;;5072908;28;19935;-51
2021/12/07 11:54:48;;;;;;;;;;;3.60;99.90;;;;;;5073478;28;19931;-53
2021/12/07 11:57:16;;;;;;;;;;;3.80;99.90;;;;;;5073602;28;19924;-54
2021/12/07 11:59:44;;;;;;;;;;;4.00;99.90;;;;;;5073835;28;20004;-54
2021/12/07 12:02:11;;;;;;;;;;;4.30;99.90;;;;;;5072939;28;20401;-54
2021/12/07 12:04:41;;;;;;;;;;;4.20;99.90;;;;;;5073796;28;19925;-54
2021/12/07 12:07:09;;;;;;;;;;;4.10;99.90;;;;;;5073563;28;19947;-53
2021/12/07 12:09:38;;;;;;;;;;;3.90;99.90;;;;;;5073154;28;19928;-54
2021/12/07 12:12:10;;;;;;;;;;;4.10;99.90;;;;;;5072541;28;19929;-53
2021/12/07 12:14:45;;;;;;;;;;;4.00;99.90;;;;;;5073294;28;19924;-54
2021/12/07 12:17:14;;;;;;;;;;;4.10;99.90;;;;;;5073379;28;19935;-53
2021/12/07 12:19:56;;;;;;;;;;;4.20;99.90;;;;;;5073301;28;20304;-55
2021/12/07 12:22:33;;;;;;;;;;;4.10;99.90;;;;;;5071966;28;19962;-53
2021/12/07 12:25:01;;;;;;;;;;;4.20;99.90;;;;;;5073222;28;19924;-54
2021/12/07 12:27:32;;;;;;;;;;;4.20;99.90;;;;;;5073199;28;19948;-54
2021/12/07 12:30:00;;;;;;;;;;;4.10;99.90;;;;;;5073056;28;20310;-53
2021/12/07 12:32:28;;;;;;;;;;;4.20;99.90;;;;;;5072442;28;20396;-54
2021/12/07 12:34:57;;;;;;;;;;;4.20;99.90;;;;;;5072772;28;19928;-55
2021/12/07 12:37:25;;;;;;;;;;;4.00;99.90;;;;;;5072806;28;19975;-53
2021/12/07 12:39:53;;;;;;;;;;;4.10;99.90;;;;;;5073001;28;19932;-54
2021/12/07 12:42:31;;;;;;;;;;;4.30;99.90;;;;;;5068463;28;19946;-54
2021/12/07 12:45:00;;;;;;;;;;;4.40;99.90;;;;;;5061203;28;19932;-55
2021/12/07 12:47:27;;;;;;;;;;;4.30;99.90;;;;;;5071782;28;19924;-54
2021/12/07 12:49:54;;;;;;;;;;;4.50;99.90;;;;;;5072474;28;19924;-54
2021/12/07 12:52:36;;;;;;;;;;;4.40;99.90;;;;;;5070751;28;19931;-54
2021/12/07 12:55:04;;;;;;;;;;;4.50;99.90;;;;;;5052505;28;19929;-54
2021/12/07 12:57:31;;;;;;;;;;;4.30;99.90;;;;;;5068069;28;19924;-56
2021/12/07 12:59:58;;;;;;;;;;;4.40;99.90;;;;;;5071876;28;19924;-55
2021/12/07 13:02:28;;;;;;;;;;;4.70;99.90;;;;;;5070939;28;19924;-53
2021/12/07 13:05:01;;;;;;;;;;;4.90;99.90;;;;;;5071829;28;19925;-53
2021/12/07 13:07:28;;;;;;;;;;;4.80;99.90;;;;;;5071699;28;20465;-54
2021/12/07 13:09:56;;;;;;;;;;;4.80;99.90;;;;;;5072026;28;19924;-53
2021/12/07 13:12:25;;;;;;;;;;;4.90;99.90;;;;;;5071035;28;19935;-54
2021/12/07 13:14:54;;;;;;;;;;;4.90;99.90;;;;;;5071842;28;19974;-55
2021/12/07 13:17:23;;;;;;;;;;;4.90;99.90;;;;;;5072052;28;19924;-53
2021/12/07 13:20:06;;;;;;;;;;;4.90;99.90;;;;;;5072370;28;19924;-54
2021/12/07 13:22:38;;;;;;;;;;;4.90;99.90;;;;;;5067031;28;19924;-53
2021/12/07 13:25:07;;;;;;;;;;;4.90;99.90;;;;;;5071972;28;19943;-55
2021/12/07 13:27:35;;;;;;;;;;;4.60;99.90;;;;;;5072008;28;20336;-54
2021/12/07 13:30:04;;;;;;;;;;;4.60;99.90;;;;;;5071650;28;19928;-53
2021/12/07 13:32:31;;;;;;;;;;;4.60;99.90;;;;;;5071386;28;19978;-54
2021/12/07 13:35:02;;;;;;;;;;;4.60;99.90;;;;;;5071953;28;19925;-54
2021/12/07 13:37:44;;;;;;;;;;;4.50;99.90;;;;;;5071971;28;19925;-53
2021/12/07 13:40:18;;;;;;;;;;;4.40;99.90;;;;;;5063610;28;20019;-55
2021/12/07 13:42:52;;;;;;;;;;;4.60;99.90;;;;;;5071086;28;19931;-54
2021/12/07 13:45:20;;;;;;;;;;;4.60;99.90;;;;;;5071943;28;19978;-54
2021/12/07 13:47:52;;;;;;;;;;;4.70;99.90;;;;;;5071818;28;19928;-56
2021/12/07 13:50:21;;;;;;;;;;;4.60;99.90;;;;;;5071388;28;20328;-54
2021/12/07 13:52:49;;;;;;;;;;;4.60;99.90;;;;;;5071164;28;20393;-54
2021/12/07 13:55:18;;;;;;;;;;;4.60;99.90;;;;;;5070952;28;20445;-54
2021/12/07 13:57:50;;;;;;;;;;;4.60;99.90;;;;;;5074263;28;19924;-53
2021/12/07 14:00:19;;;;;;;;;;;4.60;99.90;;;;;;5075344;28;19929;-54
2021/12/07 14:02:49;;;;;;;;;;;4.50;99.90;;;;;;5075866;28;19925;-54
2021/12/07 14:05:17;;;;;;;;;;;4.60;99.90;;;;;;5075908;28;19924;-54
2021/12/07 14:07:44;;;;;;;;;;;4.50;99.90;;;;;;5075707;28;20394;-54
2021/12/07 14:10:13;;;;;;;;;;;4.50;99.90;;;;;;5075528;28;19978;-55
2021/12/07 14:12:40;;;;;;;;;;;4.40;99.90;;;;;;5074987;28;19924;-54
2021/12/07 14:15:08;;;;;;;;;;;4.50;99.90;;;;;;5074708;28;19994;-53
2021/12/07 14:17:41;;;;;;;;;;;4.50;99.90;;;;;;5075662;28;20455;-54
2021/12/07 14:20:08;;;;;;;;;;;4.50;99.90;;;;;;5075386;28;19928;-54
2021/12/07 14:22:35;;;;;;;;;;;4.50;99.90;;;;;;5075347;28;20409;-54
2021/12/07 14:25:02;;;;;;;;;;;4.60;99.90;;;;;;5073798;28;19935;-56
2021/12/07 14:27:29;;;;;;;;;;;4.50;99.90;;;;;;5075193;28;19925;-53
2021/12/07 14:29:55;;;;;;;;;;;4.60;99.90;;;;;;5075552;28;20348;-54
2021/12/07 14:32:22;;;;;;;;;;;4.50;99.90;;;;;;5074776;28;20002;-54
2021/12/07 14:34:50;;;;;;;;;;;4.40;99.90;;;;;;5075515;28;19928;-54
2021/12/07 14:37:17;;;;;;;;;;;4.40;99.90;;;;;;5074965;28;19994;-54
2021/12/07 14:39:46;;;;;;;;;;;4.30;99.90;;;;;;5075297;28;19978;-55
2021/12/07 14:42:14;;;;;;;;;;;4.30;99.90;;;;;;5074545;28;19931;-54
2021/12/07 14:44:42;;;;;;;;;;;4.30;99.90;;;;;;5075541;28;20329;-54
2021/12/07 14:47:10;;;;;;;;;;;4.30;99.90;;;;;;5076427;28;19963;-53
2021/12/07 14:49:37;;;;;;;;;;;4.30;99.90;;;;;;5075624;28;19925;-55
2021/12/07 14:52:10;;;;;;;;;;;4.40;99.90;;;;;;5074901;28;19962;-55
2021/12/07 14:54:37;;;;;;;;;;;4.40;99.90;;;;;;5075885;28;20348;-54
2021/12/07 14:57:04;;;;;;;;;;;4.10;99.90;;;;;;5076561;28;19970;-52
2021/12/07 14:59:35;;;;;;;;;;;4.30;99.90;;;;;;5091620;28;19928;-55
2021/12/07 15:02:02;;;;;;;;;;;4.20;99.90;;;;;;5096298;28;19928;-55
2021/12/07 15:04:28;;;;;;;;;;;4.10;99.90;;;;;;5096482;28;19932;-57
2021/12/07 15:06:58;;;;;;;;;;;4.20;99.90;;;;;;5097602;28;19924;-54
2021/12/07 15:09:27;;;;;;;;;;;4.10;99.90;;;;;;5093728;28;19916;-56
2021/12/07 15:11:54;;;;;;;;;;;3.80;99.90;;;;;;5092070;28;19932;-54
2021/12/07 15:14:23;;;;;;;;;;;3.60;99.90;;;;;;5074863;28;19928;-54
2021/12/07 15:16:50;;;;;;;;;;;3.40;99.90;;;;;;5074670;28;20337;-55
2021/12/07 15:19:18;;;;;;;;;;;3.50;99.90;;;;;;5074882;28;19928;-54
2021/12/07 15:21:44;;;;;;;;;;;3.50;99.90;;;;;;5074095;28;20345;-54
2021/12/07 15:24:13;;;;;;;;;;;3.30;99.90;;;;;;5074313;28;19924;-55
2021/12/07 15:26:41;;;;;;;;;;;3.30;99.90;;;;;;5072932;28;20394;-55
2021/12/07 15:29:09;;;;;;;;;;;3.20;99.90;;;;;;5074608;28;19932;-55
2021/12/07 15:31:38;;;;;;;;;;;3.10;99.90;;;;;;5077067;28;19931;-54
2021/12/07 15:34:05;;;;;;;;;;;3.20;99.90;;;;;;5077938;28;19929;-54
2021/12/07 15:36:33;;;;;;;;;;;3.10;99.90;;;;;;5078199;28;19932;-54
2021/12/07 15:39:10;;;;;;;;;;;2.90;99.90;;;;;;5076434;28;19948;-55
2021/12/07 15:41:37;;;;;;;;;;;2.90;99.90;;;;;;5073360;28;20378;-54
2021/12/07 15:44:06;;;;;;;;;;;2.90;99.90;;;;;;5074110;28;19970;-55
2021/12/07 15:46:33;;;;;;;;;;;2.90;99.90;;;;;;5074357;28;20352;-53
2021/12/07 15:49:00;;;;;;;;;;;2.80;99.90;;;;;;5074352;28;19924;-54
2021/12/07 15:51:26;;;;;;;;;;;2.70;99.90;;;;;;5073375;28;20447;-54
2021/12/07 15:53:54;;;;;;;;;;;2.80;99.90;;;;;;5073608;28;20583;-54
2021/12/07 15:56:22;;;;;;;;;;;2.80;99.90;;;;;;5072201;28;20336;-54
2021/12/07 15:58:49;;;;;;;;;;;3.00;99.90;;;;;;5069109;28;19924;-56
2021/12/07 16:01:17;;;;;;;;;;;3.00;99.90;;;;;;5066147;28;20282;-54
2021/12/07 16:03:45;;;;;;;;;;;2.80;99.90;;;;;;5063884;28;19925;-54
2021/12/07 16:06:16;;;;;;;;;;;2.70;99.90;;;;;;5064479;28;19925;-55
2021/12/07 16:08:43;;;;;;;;;;;2.50;99.90;;;;;;5067540;28;20019;-53